sensor_id;sensor_type;location;lat;lon;timestamp;P1;P2;P0
62778;PMS7003;48821;48.796;2.396;2023-02-15T00:01:07;92.80;70.80;44.80
62778;PMS7003;48821;48.796;2.396;2023-02-15T00:02:19;84.00;71.00;46.00
62778;PMS7003;48821;48.796;2.396;2023-02-15T00:03:32;81.00;63.25;35.50
62778;PMS7003;48821;48.796;2.396;2023-02-15T00:04:43;90.00;73.33;45.67
62778;PMS7003;48821;48.796;2.396;2023-02-15T00:05:59;85.75;73.50;45.50
62778;PMS7003;48821;48.796;2.396;2023-02-15T00:07:09;86.50;75.50;45.00
62778;PMS7003;48821;48.796;2.396;2023-02-15T00:08:24;86.11;73.89;44.44
62778;PMS7003;48821;48.796;2.396;2023-02-15T00:09:36;87.00;69.00;42.50
62778;PMS7003;48821;48.796;2.396;2023-02-15T00:10:48;85.60;74.60;45.20
62778;PMS7003;48821;48.796;2.396;2023-02-15T00:12:01;88.50;73.33;43.67
62778;PMS7003;48821;48.796;2.396;2023-02-15T00:13:13;86.33;73.67;45.33
62778;PMS7003;48821;48.796;2.396;2023-02-15T00:14:25;87.00;76.50;44.50
62778;PMS7003;48821;48.796;2.396;2023-02-15T00:15:35;88.00;73.50;46.50
62778;PMS7003;48821;48.796;2.396;2023-02-15T00:16:50;87.13;71.38;42.00
62778;PMS7003;48821;48.796;2.396;2023-02-15T00:18:02;89.00;76.50;45.00
62778;PMS7003;48821;48.796;2.396;2023-02-15T00:19:15;85.40;67.60;41.40
62778;PMS7003;48821;48.796;2.396;2023-02-15T00:20:26;85.00;68.50;42.00
62778;PMS7003;48821;48.796;2.396;2023-02-15T00:21:39;85.40;67.60;41.00
62778;PMS7003;48821;48.796;2.396;2023-02-15T00:22:50;84.00;65.00;40.50
62778;PMS7003;48821;48.796;2.396;2023-02-15T00:24:03;87.60;73.00;45.40
62778;PMS7003;48821;48.796;2.396;2023-02-15T00:25:17;97.25;74.25;44.75
62778;PMS7003;48821;48.796;2.396;2023-02-15T00:26:30;82.00;64.38;41.88
62778;PMS7003;48821;48.796;2.396;2023-02-15T00:27:42;85.50;70.00;42.00
62778;PMS7003;48821;48.796;2.396;2023-02-15T00:28:56;85.38;73.38;45.63
62778;PMS7003;48821;48.796;2.396;2023-02-15T00:30:10;88.00;73.50;45.00
62778;PMS7003;48821;48.796;2.396;2023-02-15T00:31:21;87.00;71.00;41.00
62778;PMS7003;48821;48.796;2.396;2023-02-15T00:32:34;86.17;70.33;41.67
62778;PMS7003;48821;48.796;2.396;2023-02-15T00:33:46;86.67;69.00;41.33
62778;PMS7003;48821;48.796;2.396;2023-02-15T00:34:58;85.20;70.00;41.20
62778;PMS7003;48821;48.796;2.396;2023-02-15T00:36:12;81.88;70.88;41.75
62778;PMS7003;48821;48.796;2.396;2023-02-15T00:37:23;86.00;68.00;44.00
62778;PMS7003;48821;48.796;2.396;2023-02-15T00:38:35;86.80;72.20;44.40
62778;PMS7003;48821;48.796;2.396;2023-02-15T00:39:47;83.00;71.00;44.00
62778;PMS7003;48821;48.796;2.396;2023-02-15T00:41:01;87.38;68.50;43.13
62778;PMS7003;48821;48.796;2.396;2023-02-15T00:42:15;85.00;73.00;42.75
62778;PMS7003;48821;48.796;2.396;2023-02-15T00:43:26;86.00;69.00;39.50
62778;PMS7003;48821;48.796;2.396;2023-02-15T00:44:38;81.50;69.00;43.00
62778;PMS7003;48821;48.796;2.396;2023-02-15T00:45:51;85.38;72.25;45.00
62778;PMS7003;48821;48.796;2.396;2023-02-15T00:47:02;88.00;74.00;41.50
62778;PMS7003;48821;48.796;2.396;2023-02-15T00:48:17;89.50;73.88;43.25
62778;PMS7003;48821;48.796;2.396;2023-02-15T00:49:30;84.25;69.25;41.25
62778;PMS7003;48821;48.796;2.396;2023-02-15T00:50:40;87.00;68.00;40.00
62778;PMS7003;48821;48.796;2.396;2023-02-15T00:51:51;89.00;70.00;42.50
62778;PMS7003;48821;48.796;2.396;2023-02-15T00:53:04;84.00;68.80;43.80
62778;PMS7003;48821;48.796;2.396;2023-02-15T00:54:16;88.00;74.50;42.00
62778;PMS7003;48821;48.796;2.396;2023-02-15T00:55:29;87.75;73.50;43.25
62778;PMS7003;48821;48.796;2.396;2023-02-15T00:56:40;85.00;71.00;42.50
62778;PMS7003;48821;48.796;2.396;2023-02-15T00:57:52;87.20;69.20;42.80
62778;PMS7003;48821;48.796;2.396;2023-02-15T00:59:04;82.60;66.00;44.00
62778;PMS7003;48821;48.796;2.396;2023-02-15T01:00:17;88.67;71.17;39.17
62778;PMS7003;48821;48.796;2.396;2023-02-15T01:01:28;87.00;75.33;44.00
62778;PMS7003;48821;48.796;2.396;2023-02-15T01:02:40;86.33;68.67;42.33
62778;PMS7003;48821;48.796;2.396;2023-02-15T01:03:51;83.33;69.67;42.33
62778;PMS7003;48821;48.796;2.396;2023-02-15T01:05:03;88.67;70.00;43.67
62778;PMS7003;48821;48.796;2.396;2023-02-15T01:06:14;89.00;71.00;41.00
62778;PMS7003;48821;48.796;2.396;2023-02-15T01:07:26;86.50;72.50;44.00
62778;PMS7003;48821;48.796;2.396;2023-02-15T01:08:38;86.00;69.80;43.20
62778;PMS7003;48821;48.796;2.396;2023-02-15T01:09:50;86.67;71.67;44.00
62778;PMS7003;48821;48.796;2.396;2023-02-15T01:11:06;88.20;74.20;43.60
62778;PMS7003;48821;48.796;2.396;2023-02-15T01:12:19;88.33;72.67;46.00
62778;PMS7003;48821;48.796;2.396;2023-02-15T01:13:32;87.25;71.00;44.25
62778;PMS7003;48821;48.796;2.396;2023-02-15T01:14:45;87.50;72.75;45.00
62778;PMS7003;48821;48.796;2.396;2023-02-15T01:15:56;85.00;68.00;42.00
62778;PMS7003;48821;48.796;2.396;2023-02-15T01:17:07;91.00;70.50;43.00
62778;PMS7003;48821;48.796;2.396;2023-02-15T01:18:21;86.00;65.00;39.38
62778;PMS7003;48821;48.796;2.396;2023-02-15T01:19:32;87.50;73.00;45.50
62778;PMS7003;48821;48.796;2.396;2023-02-15T01:20:46;88.75;74.13;43.13
62778;PMS7003;48821;48.796;2.396;2023-02-15T01:21:57;83.00;64.00;39.00
62778;PMS7003;48821;48.796;2.396;2023-02-15T01:23:09;84.60;70.00;40.20
62778;PMS7003;48821;48.796;2.396;2023-02-15T01:24:23;87.00;67.63;39.00
62778;PMS7003;48821;48.796;2.396;2023-02-15T01:25:37;84.75;68.63;40.88
62778;PMS7003;48821;48.796;2.396;2023-02-15T01:26:50;86.00;71.75;42.25
62778;PMS7003;48821;48.796;2.396;2023-02-15T01:28:02;85.25;68.75;45.25
62778;PMS7003;48821;48.796;2.396;2023-02-15T01:29:14;92.00;79.33;46.67
62778;PMS7003;48821;48.796;2.396;2023-02-15T01:30:27;77.25;57.00;33.50
62778;PMS7003;48821;48.796;2.396;2023-02-15T01:31:38;86.00;73.00;44.50
62778;PMS7003;48821;48.796;2.396;2023-02-15T01:32:50;88.60;68.60;38.20
62778;PMS7003;48821;48.796;2.396;2023-02-15T01:34:03;88.75;69.25;38.50
62778;PMS7003;48821;48.796;2.396;2023-02-15T01:35:17;82.50;61.75;38.75
62778;PMS7003;48821;48.796;2.396;2023-02-15T01:36:29;86.80;75.80;43.20
62778;PMS7003;48821;48.796;2.396;2023-02-15T01:37:40;88.50;72.50;42.00
62778;PMS7003;48821;48.796;2.396;2023-02-15T01:38:52;86.40;70.00;40.20
62778;PMS7003;48821;48.796;2.396;2023-02-15T01:40:05;85.80;74.20;44.60
62778;PMS7003;48821;48.796;2.396;2023-02-15T01:41:19;86.50;69.50;43.50
62778;PMS7003;48821;48.796;2.396;2023-02-15T01:42:32;84.50;70.25;43.25
62778;PMS7003;48821;48.796;2.396;2023-02-15T01:43:45;86.33;68.00;42.00
62778;PMS7003;48821;48.796;2.396;2023-02-15T01:45:02;80.00;63.75;40.75
62778;PMS7003;48821;48.796;2.396;2023-02-15T01:46:15;85.50;67.00;44.00
62778;PMS7003;48821;48.796;2.396;2023-02-15T01:47:31;84.00;68.50;41.50
62778;PMS7003;48821;48.796;2.396;2023-02-15T01:48:48;84.50;69.00;42.00
62778;PMS7003;48821;48.796;2.396;2023-02-15T01:51:29;86.50;65.00;41.50
62778;PMS7003;48821;48.796;2.396;2023-02-15T01:52:45;87.50;74.00;43.00
62778;PMS7003;48821;48.796;2.396;2023-02-15T01:54:03;86.00;70.50;42.00
62778;PMS7003;48821;48.796;2.396;2023-02-15T01:55:21;88.00;72.00;45.00
62778;PMS7003;48821;48.796;2.396;2023-02-15T01:56:37;85.25;70.25;42.25
62778;PMS7003;48821;48.796;2.396;2023-02-15T01:57:49;91.00;72.50;42.00
62778;PMS7003;48821;48.796;2.396;2023-02-15T01:59:02;83.00;68.00;41.00
62778;PMS7003;48821;48.796;2.396;2023-02-15T02:00:20;83.75;69.25;40.00
62778;PMS7003;48821;48.796;2.396;2023-02-15T02:01:31;88.00;67.00;40.00
62778;PMS7003;48821;48.796;2.396;2023-02-15T02:02:43;89.00;69.00;42.00
62778;PMS7003;48821;48.796;2.396;2023-02-15T02:04:11;85.50;68.50;40.00
62778;PMS7003;48821;48.796;2.396;2023-02-15T02:05:40;84.00;66.00;40.00
62778;PMS7003;48821;48.796;2.396;2023-02-15T02:06:52;77.67;60.00;35.00
62778;PMS7003;48821;48.796;2.396;2023-02-15T02:08:04;87.50;70.00;44.00
62778;PMS7003;48821;48.796;2.396;2023-02-15T02:09:16;87.00;69.20;43.40
62778;PMS7003;48821;48.796;2.396;2023-02-15T02:10:30;88.00;72.75;42.13
62778;PMS7003;48821;48.796;2.396;2023-02-15T02:11:43;86.25;68.50;43.75
62778;PMS7003;48821;48.796;2.396;2023-02-15T02:12:57;88.50;71.00;43.00
62778;PMS7003;48821;48.796;2.396;2023-02-15T02:14:13;90.00;71.50;42.00
62778;PMS7003;48821;48.796;2.396;2023-02-15T02:15:28;82.50;70.50;44.50
62778;PMS7003;48821;48.796;2.396;2023-02-15T02:21:45;86.25;67.00;40.25
62778;PMS7003;48821;48.796;2.396;2023-02-15T02:23:05;88.00;72.00;44.00
62778;PMS7003;48821;48.796;2.396;2023-02-15T02:32:17;88.00;72.50;42.00
62778;PMS7003;48821;48.796;2.396;2023-02-15T02:35:27;90.00;73.50;43.50
62778;PMS7003;48821;48.796;2.396;2023-02-15T02:40:00;92.50;73.75;39.50
62778;PMS7003;48821;48.796;2.396;2023-02-15T02:44:31;85.50;71.50;43.75
62778;PMS7003;48821;48.796;2.396;2023-02-15T02:46:34;83.00;64.67;39.00
62778;PMS7003;48821;48.796;2.396;2023-02-15T02:47:32;86.50;69.00;42.00
62778;PMS7003;48821;48.796;2.396;2023-02-15T02:48:46;86.25;69.50;42.50
62778;PMS7003;48821;48.796;2.396;2023-02-15T02:49:59;86.50;68.50;40.00
62778;PMS7003;48821;48.796;2.396;2023-02-15T02:51:14;81.00;68.00;40.67
62778;PMS7003;48821;48.796;2.396;2023-02-15T02:54:07;86.00;67.50;44.00
62778;PMS7003;48821;48.796;2.396;2023-02-15T02:56:41;83.00;65.00;38.67
62778;PMS7003;48821;48.796;2.396;2023-02-15T02:58:07;88.50;67.50;40.00
62778;PMS7003;48821;48.796;2.396;2023-02-15T02:59:41;90.00;71.75;43.75
62778;PMS7003;48821;48.796;2.396;2023-02-15T03:00:56;86.50;73.00;43.50
62778;PMS7003;48821;48.796;2.396;2023-02-15T03:02:20;85.00;65.50;39.00
62778;PMS7003;48821;48.796;2.396;2023-02-15T03:03:38;87.50;73.75;41.00
62778;PMS7003;48821;48.796;2.396;2023-02-15T03:04:57;86.75;68.75;44.00
62778;PMS7003;48821;48.796;2.396;2023-02-15T03:06:16;88.00;71.50;43.00
62778;PMS7003;48821;48.796;2.396;2023-02-15T03:07:30;85.50;70.00;43.50
62778;PMS7003;48821;48.796;2.396;2023-02-15T03:08:42;87.00;69.00;42.00
62778;PMS7003;48821;48.796;2.396;2023-02-15T03:09:59;90.00;74.00;45.00
62778;PMS7003;48821;48.796;2.396;2023-02-15T03:11:11;88.50;73.50;46.00
62778;PMS7003;48821;48.796;2.396;2023-02-15T03:13:36;91.00;75.00;44.00
62778;PMS7003;48821;48.796;2.396;2023-02-15T03:14:51;91.50;70.50;40.00
62778;PMS7003;48821;48.796;2.396;2023-02-15T03:16:08;85.00;69.25;40.75
62778;PMS7003;48821;48.796;2.396;2023-02-15T03:17:40;89.00;72.50;45.00
62778;PMS7003;48821;48.796;2.396;2023-02-15T03:18:57;79.67;60.00;39.00
62778;PMS7003;48821;48.796;2.396;2023-02-15T03:21:43;84.00;65.50;39.00
62778;PMS7003;48821;48.796;2.396;2023-02-15T03:23:11;89.75;72.25;44.25
62778;PMS7003;48821;48.796;2.396;2023-02-15T03:24:28;85.00;65.67;42.33
62778;PMS7003;48821;48.796;2.396;2023-02-15T03:25:46;91.50;77.00;45.00
62778;PMS7003;48821;48.796;2.396;2023-02-15T03:27:02;89.00;73.50;43.00
62778;PMS7003;48821;48.796;2.396;2023-02-15T03:28:20;86.75;73.00;42.75
62778;PMS7003;48821;48.796;2.396;2023-02-15T03:29:37;87.00;66.00;41.75
62778;PMS7003;48821;48.796;2.396;2023-02-15T03:30:51;89.00;77.50;46.50
62778;PMS7003;48821;48.796;2.396;2023-02-15T03:32:07;86.50;65.50;39.00
62778;PMS7003;48821;48.796;2.396;2023-02-15T03:33:21;87.50;70.50;41.00
62778;PMS7003;48821;48.796;2.396;2023-02-15T03:34:36;81.50;62.50;40.00
62778;PMS7003;48821;48.796;2.396;2023-02-15T03:36:11;89.20;73.20;44.00
62778;PMS7003;48821;48.796;2.396;2023-02-15T03:37:33;90.50;74.50;44.50
62778;PMS7003;48821;48.796;2.396;2023-02-15T03:40:22;82.67;71.33;43.33
62778;PMS7003;48821;48.796;2.396;2023-02-15T03:42:13;87.00;69.00;44.00
62778;PMS7003;48821;48.796;2.396;2023-02-15T03:45:08;91.00;73.50;44.00
62778;PMS7003;48821;48.796;2.396;2023-02-15T03:47:50;90.00;76.00;45.00
62778;PMS7003;48821;48.796;2.396;2023-02-15T03:49:09;91.00;75.00;45.50
62778;PMS7003;48821;48.796;2.396;2023-02-15T03:50:26;83.00;63.50;43.25
62778;PMS7003;48821;48.796;2.396;2023-02-15T03:51:59;90.50;73.50;44.00
62778;PMS7003;48821;48.796;2.396;2023-02-15T03:53:17;86.67;67.33;41.00
62778;PMS7003;48821;48.796;2.396;2023-02-15T03:54:31;91.00;74.00;42.00
62778;PMS7003;48821;48.796;2.396;2023-02-15T03:55:56;63.00;43.00;6.00
62778;PMS7003;48821;48.796;2.396;2023-02-15T03:58:53;90.25;77.50;44.75
62778;PMS7003;48821;48.796;2.396;2023-02-15T04:00:24;89.25;73.75;45.00
62778;PMS7003;48821;48.796;2.396;2023-02-15T04:04:56;89.00;70.00;44.00
62778;PMS7003;48821;48.796;2.396;2023-02-15T04:06:08;88.25;74.25;44.75
62778;PMS7003;48821;48.796;2.396;2023-02-15T04:07:20;96.33;78.00;46.67
62778;PMS7003;48821;48.796;2.396;2023-02-15T04:08:31;84.33;69.67;39.00
62778;PMS7003;48821;48.796;2.396;2023-02-15T04:10:00;90.00;71.50;42.50
62778;PMS7003;48821;48.796;2.396;2023-02-15T04:11:31;86.75;72.75;47.00
62778;PMS7003;48821;48.796;2.396;2023-02-15T04:12:44;89.25;72.75;45.50
62778;PMS7003;48821;48.796;2.396;2023-02-15T04:13:57;87.88;72.38;41.88
62778;PMS7003;48821;48.796;2.396;2023-02-15T04:15:11;91.20;75.20;45.60
62778;PMS7003;48821;48.796;2.396;2023-02-15T04:16:41;88.00;72.50;45.00
62778;PMS7003;48821;48.796;2.396;2023-02-15T04:17:53;91.00;78.80;48.60
62778;PMS7003;48821;48.796;2.396;2023-02-15T04:19:07;89.50;75.25;45.50
62778;PMS7003;48821;48.796;2.396;2023-02-15T04:20:38;97.25;81.25;45.75
62778;PMS7003;48821;48.796;2.396;2023-02-15T04:22:07;88.00;72.50;46.00
62778;PMS7003;48821;48.796;2.396;2023-02-15T04:23:36;86.00;70.00;46.00
62778;PMS7003;48821;48.796;2.396;2023-02-15T04:25:06;92.67;80.67;49.00
62778;PMS7003;48821;48.796;2.396;2023-02-15T04:26:25;90.50;75.00;47.50
62778;PMS7003;48821;48.796;2.396;2023-02-15T04:27:39;92.13;77.88;45.25
62778;PMS7003;48821;48.796;2.396;2023-02-15T04:28:52;91.50;75.00;45.00
62778;PMS7003;48821;48.796;2.396;2023-02-15T04:30:06;87.00;68.75;43.13
62778;PMS7003;48821;48.796;2.396;2023-02-15T04:31:17;93.00;80.00;45.50
62778;PMS7003;48821;48.796;2.396;2023-02-15T04:32:31;84.38;65.50;39.63
62778;PMS7003;48821;48.796;2.396;2023-02-15T04:33:43;88.00;74.33;49.00
62778;PMS7003;48821;48.796;2.396;2023-02-15T04:34:57;95.75;77.25;45.63
62778;PMS7003;48821;48.796;2.396;2023-02-15T04:36:11;92.00;79.38;48.38
62778;PMS7003;48821;48.796;2.396;2023-02-15T04:37:24;87.88;73.50;41.88
62778;PMS7003;48821;48.796;2.396;2023-02-15T04:38:37;88.00;83.00;49.00
62778;PMS7003;48821;48.796;2.396;2023-02-15T04:39:49;86.80;71.60;43.00
62778;PMS7003;48821;48.796;2.396;2023-02-15T04:41:00;89.00;70.00;47.00
62778;PMS7003;48821;48.796;2.396;2023-02-15T04:42:12;91.40;75.80;46.20
62778;PMS7003;48821;48.796;2.396;2023-02-15T04:43:24;88.20;73.80;47.80
62778;PMS7003;48821;48.796;2.396;2023-02-15T04:44:38;86.75;70.88;42.38
62778;PMS7003;48821;48.796;2.396;2023-02-15T04:45:50;94.00;81.40;49.60
62778;PMS7003;48821;48.796;2.396;2023-02-15T04:47:03;88.75;75.50;47.50
62778;PMS7003;48821;48.796;2.396;2023-02-15T04:48:16;85.25;69.25;42.25
62778;PMS7003;48821;48.796;2.396;2023-02-15T04:49:29;93.00;79.75;49.50
62778;PMS7003;48821;48.796;2.396;2023-02-15T04:50:42;95.25;82.00;54.00
62778;PMS7003;48821;48.796;2.396;2023-02-15T04:51:55;95.00;77.00;49.25
62778;PMS7003;48821;48.796;2.396;2023-02-15T04:53:06;99.00;85.50;48.00
62778;PMS7003;48821;48.796;2.396;2023-02-15T04:54:18;102.60;84.40;51.40
62778;PMS7003;48821;48.796;2.396;2023-02-15T04:55:30;95.20;82.80;50.80
62778;PMS7003;48821;48.796;2.396;2023-02-15T04:56:44;98.00;82.75;52.63
62778;PMS7003;48821;48.796;2.396;2023-02-15T04:57:55;91.00;77.50;48.00
62778;PMS7003;48821;48.796;2.396;2023-02-15T04:59:08;95.00;80.60;50.60
62778;PMS7003;48821;48.796;2.396;2023-02-15T05:00:22;93.00;78.00;48.75
62778;PMS7003;48821;48.796;2.396;2023-02-15T05:01:33;92.00;81.50;48.00
62778;PMS7003;48821;48.796;2.396;2023-02-15T05:02:45;95.00;80.60;50.00
62778;PMS7003;48821;48.796;2.396;2023-02-15T05:03:57;92.40;78.40;47.20
62778;PMS7003;48821;48.796;2.396;2023-02-15T05:05:10;98.00;78.50;45.00
62778;PMS7003;48821;48.796;2.396;2023-02-15T05:06:23;96.00;84.00;52.00
62778;PMS7003;48821;48.796;2.396;2023-02-15T05:07:35;88.40;68.40;51.20
62778;PMS7003;48821;48.796;2.396;2023-02-15T05:08:47;91.20;76.80;43.00
62778;PMS7003;48821;48.796;2.396;2023-02-15T05:09:58;102.00;89.00;51.50
62778;PMS7003;48821;48.796;2.396;2023-02-15T05:11:10;93.67;84.67;52.33
62778;PMS7003;48821;48.796;2.396;2023-02-15T05:12:24;98.63;80.75;49.63
62778;PMS7003;48821;48.796;2.396;2023-02-15T05:13:36;94.40;79.20;50.80
62778;PMS7003;48821;48.796;2.396;2023-02-15T05:14:50;90.38;81.50;52.13
62778;PMS7003;48821;48.796;2.396;2023-02-15T05:16:02;92.80;81.20;49.40
62778;PMS7003;48821;48.796;2.396;2023-02-15T05:17:13;97.00;80.00;46.50
62778;PMS7003;48821;48.796;2.396;2023-02-15T05:18:25;90.40;73.20;41.20
62778;PMS7003;48821;48.796;2.396;2023-02-15T05:19:39;100.75;82.88;50.13
62778;PMS7003;48821;48.796;2.396;2023-02-15T05:20:53;94.50;79.38;50.00
62778;PMS7003;48821;48.796;2.396;2023-02-15T05:22:05;105.20;90.80;56.00
62778;PMS7003;48821;48.796;2.396;2023-02-15T05:23:19;91.67;73.56;46.22
62778;PMS7003;48821;48.796;2.396;2023-02-15T05:24:31;89.33;80.67;48.67
62778;PMS7003;48821;48.796;2.396;2023-02-15T05:26:00;107.50;88.50;52.50
62778;PMS7003;48821;48.796;2.396;2023-02-15T05:27:29;97.50;86.00;49.50
62778;PMS7003;48821;48.796;2.396;2023-02-15T05:28:59;94.00;87.00;54.00
62778;PMS7003;48821;48.796;2.396;2023-02-15T05:30:13;100.88;85.88;51.25
62778;PMS7003;48821;48.796;2.396;2023-02-15T05:31:25;99.20;88.80;54.60
62778;PMS7003;48821;48.796;2.396;2023-02-15T05:32:37;106.80;92.20;55.80
62778;PMS7003;48821;48.796;2.396;2023-02-15T05:33:49;98.00;84.50;49.50
62778;PMS7003;48821;48.796;2.396;2023-02-15T05:35:01;102.17;89.50;54.33
62778;PMS7003;48821;48.796;2.396;2023-02-15T05:36:13;100.67;84.33;54.00
62778;PMS7003;48821;48.796;2.396;2023-02-15T05:37:26;103.50;86.50;52.17
62778;PMS7003;48821;48.796;2.396;2023-02-15T05:38:37;103.50;89.00;51.50
62778;PMS7003;48821;48.796;2.396;2023-02-15T05:39:50;93.00;79.75;53.00
62778;PMS7003;48821;48.796;2.396;2023-02-15T05:41:01;104.00;95.00;54.00
62778;PMS7003;48821;48.796;2.396;2023-02-15T05:42:13;105.00;92.40;55.40
62778;PMS7003;48821;48.796;2.396;2023-02-15T05:43:27;101.50;85.88;55.38
62778;PMS7003;48821;48.796;2.396;2023-02-15T05:44:38;99.50;83.00;52.00
62778;PMS7003;48821;48.796;2.396;2023-02-15T05:45:53;99.50;83.88;50.75
62778;PMS7003;48821;48.796;2.396;2023-02-15T05:47:04;94.00;85.00;52.00
62778;PMS7003;48821;48.796;2.396;2023-02-15T05:48:19;97.00;89.00;55.25
62778;PMS7003;48821;48.796;2.396;2023-02-15T05:49:32;111.00;90.00;52.33
62778;PMS7003;48821;48.796;2.396;2023-02-15T05:50:42;99.00;90.50;55.00
62778;PMS7003;48821;48.796;2.396;2023-02-15T05:51:55;90.00;84.33;53.33
62778;PMS7003;48821;48.796;2.396;2023-02-15T05:53:09;100.89;87.22;53.22
62778;PMS7003;48821;48.796;2.396;2023-02-15T05:54:22;95.00;82.25;55.00
62778;PMS7003;48821;48.796;2.396;2023-02-15T05:55:33;108.50;88.50;51.50
62778;PMS7003;48821;48.796;2.396;2023-02-15T05:56:45;94.00;79.00;42.40
62778;PMS7003;48821;48.796;2.396;2023-02-15T05:57:57;95.80;81.80;49.20
62778;PMS7003;48821;48.796;2.396;2023-02-15T05:59:09;98.80;84.20;51.20
62778;PMS7003;48821;48.796;2.396;2023-02-15T06:00:21;91.20;81.80;52.00
62778;PMS7003;48821;48.796;2.396;2023-02-15T06:01:34;100.25;88.75;53.00
62778;PMS7003;48821;48.796;2.396;2023-02-15T06:02:48;97.00;83.25;50.75
62778;PMS7003;48821;48.796;2.396;2023-02-15T06:04:00;90.67;76.67;43.33
62778;PMS7003;48821;48.796;2.396;2023-02-15T06:05:12;94.20;79.40;51.80
62778;PMS7003;48821;48.796;2.396;2023-02-15T06:06:24;90.40;79.80;50.20
62778;PMS7003;48821;48.796;2.396;2023-02-15T06:07:36;89.33;79.67;49.33
62778;PMS7003;48821;48.796;2.396;2023-02-15T06:08:48;96.20;79.80;43.80
62778;PMS7003;48821;48.796;2.396;2023-02-15T06:10:00;105.50;82.50;48.50
62778;PMS7003;48821;48.796;2.396;2023-02-15T06:11:12;98.80;85.60;51.20
62778;PMS7003;48821;48.796;2.396;2023-02-15T06:12:26;100.00;86.38;51.25
62778;PMS7003;48821;48.796;2.396;2023-02-15T06:13:38;96.75;85.75;54.00
62778;PMS7003;48821;48.796;2.396;2023-02-15T06:14:52;96.88;84.50;50.63
62778;PMS7003;48821;48.796;2.396;2023-02-15T06:16:05;96.00;83.80;51.00
62778;PMS7003;48821;48.796;2.396;2023-02-15T06:17:18;99.50;83.75;50.00
62778;PMS7003;48821;48.796;2.396;2023-02-15T06:18:28;102.00;88.00;49.50
62778;PMS7003;48821;48.796;2.396;2023-02-15T06:19:40;93.00;80.40;48.60
62778;PMS7003;48821;48.796;2.396;2023-02-15T06:20:54;90.88;78.50;49.88
62778;PMS7003;48821;48.796;2.396;2023-02-15T06:22:08;88.50;72.38;41.13
62778;PMS7003;48821;48.796;2.396;2023-02-15T06:23:20;92.40;76.20;41.20
62778;PMS7003;48821;48.796;2.396;2023-02-15T06:24:34;90.25;76.38;41.50
62778;PMS7003;48821;48.796;2.396;2023-02-15T06:25:48;96.38;83.38;50.25
62778;PMS7003;48821;48.796;2.396;2023-02-15T06:27:00;96.60;84.60;50.80
62778;PMS7003;48821;48.796;2.396;2023-02-15T06:28:12;90.80;75.40;47.00
62778;PMS7003;48821;48.796;2.396;2023-02-15T06:29:25;103.33;88.00;50.00
62778;PMS7003;48821;48.796;2.396;2023-02-15T06:30:35;103.50;88.00;51.50
62778;PMS7003;48821;48.796;2.396;2023-02-15T06:31:48;96.50;85.75;52.25
62778;PMS7003;48821;48.796;2.396;2023-02-15T06:32:59;108.00;84.50;49.50
62778;PMS7003;48821;48.796;2.396;2023-02-15T06:34:11;95.00;86.00;54.33
62778;PMS7003;48821;48.796;2.396;2023-02-15T06:35:24;101.83;84.33;52.17
62778;PMS7003;48821;48.796;2.396;2023-02-15T06:36:35;96.50;86.00;51.50
62778;PMS7003;48821;48.796;2.396;2023-02-15T06:37:48;102.75;84.00;48.75
62778;PMS7003;48821;48.796;2.396;2023-02-15T06:39:00;97.20;89.40;52.00
62778;PMS7003;48821;48.796;2.396;2023-02-15T06:40:13;95.50;85.00;51.00
62778;PMS7003;48821;48.796;2.396;2023-02-15T06:41:24;100.00;84.00;53.00
62778;PMS7003;48821;48.796;2.396;2023-02-15T06:42:35;104.50;88.00;54.50
62778;PMS7003;48821;48.796;2.396;2023-02-15T06:43:47;101.80;86.20;53.40
62778;PMS7003;48821;48.796;2.396;2023-02-15T06:45:01;92.50;83.88;51.50
62778;PMS7003;48821;48.796;2.396;2023-02-15T06:46:14;95.00;80.25;50.63
62778;PMS7003;48821;48.796;2.396;2023-02-15T06:47:27;101.67;85.17;53.50
62778;PMS7003;48821;48.796;2.396;2023-02-15T06:48:38;105.50;90.00;55.00
62778;PMS7003;48821;48.796;2.396;2023-02-15T06:49:51;104.00;89.00;53.50
62778;PMS7003;48821;48.796;2.396;2023-02-15T06:51:05;92.25;78.00;48.63
62778;PMS7003;48821;48.796;2.396;2023-02-15T06:52:18;99.63;85.63;54.38
62778;PMS7003;48821;48.796;2.396;2023-02-15T06:53:31;99.40;80.60;49.40
62778;PMS7003;48821;48.796;2.396;2023-02-15T06:54:42;98.00;83.00;51.50
62778;PMS7003;48821;48.796;2.396;2023-02-15T06:55:59;96.00;81.50;48.00
62778;PMS7003;48821;48.796;2.396;2023-02-15T06:57:12;102.50;90.75;54.50
62778;PMS7003;48821;48.796;2.396;2023-02-15T06:58:25;105.50;89.00;55.17
62778;PMS7003;48821;48.796;2.396;2023-02-15T06:59:37;94.00;82.75;52.50
62778;PMS7003;48821;48.796;2.396;2023-02-15T07:00:49;93.67;79.67;46.67
62778;PMS7003;48821;48.796;2.396;2023-02-15T07:02:03;95.50;82.75;53.75
62778;PMS7003;48821;48.796;2.396;2023-02-15T07:03:14;95.50;82.50;51.00
62778;PMS7003;48821;48.796;2.396;2023-02-15T07:04:26;104.40;90.40;54.60
62778;PMS7003;48821;48.796;2.396;2023-02-15T07:05:40;95.00;84.00;51.50
62778;PMS7003;48821;48.796;2.396;2023-02-15T07:06:52;92.25;79.75;48.25
62778;PMS7003;48821;48.796;2.396;2023-02-15T07:08:03;94.00;81.50;47.00
62778;PMS7003;48821;48.796;2.396;2023-02-15T07:09:14;112.50;93.50;55.00
62778;PMS7003;48821;48.796;2.396;2023-02-15T07:10:29;108.78;92.78;55.56
62778;PMS7003;48821;48.796;2.396;2023-02-15T07:11:39;108.50;89.50;50.00
62778;PMS7003;48821;48.796;2.396;2023-02-15T07:13:09;108.50;91.00;53.00
62778;PMS7003;48821;48.796;2.396;2023-02-15T07:14:21;100.60;89.00;51.60
62778;PMS7003;48821;48.796;2.396;2023-02-15T07:15:33;106.00;94.20;56.00
62778;PMS7003;48821;48.796;2.396;2023-02-15T07:16:46;93.00;81.25;53.75
62778;PMS7003;48821;48.796;2.396;2023-02-15T07:17:58;107.25;92.00;54.50
62778;PMS7003;48821;48.796;2.396;2023-02-15T07:19:10;101.40;85.00;50.40
62778;PMS7003;48821;48.796;2.396;2023-02-15T07:20:23;104.67;88.17;54.00
62778;PMS7003;48821;48.796;2.396;2023-02-15T07:21:35;100.67;88.00;54.00
62778;PMS7003;48821;48.796;2.396;2023-02-15T07:22:46;105.00;89.00;54.50
62778;PMS7003;48821;48.796;2.396;2023-02-15T07:23:59;102.50;95.50;55.25
62778;PMS7003;48821;48.796;2.396;2023-02-15T07:25:12;105.25;86.00;52.25
62778;PMS7003;48821;48.796;2.396;2023-02-15T07:26:24;90.00;76.33;53.00
62778;PMS7003;48821;48.796;2.396;2023-02-15T07:27:37;102.60;86.60;53.00
62778;PMS7003;48821;48.796;2.396;2023-02-15T07:28:48;99.33;84.67;51.67
62778;PMS7003;48821;48.796;2.396;2023-02-15T07:30:04;105.56;89.67;53.67
62778;PMS7003;48821;48.796;2.396;2023-02-15T07:31:17;96.50;86.00;54.50
62778;PMS7003;48821;48.796;2.396;2023-02-15T07:32:30;93.33;80.33;49.00
62778;PMS7003;48821;48.796;2.396;2023-02-15T07:33:42;91.50;75.50;46.50
62778;PMS7003;48821;48.796;2.396;2023-02-15T07:34:54;91.60;81.60;48.60